createdAt,value
2018-11-03T00:00:15.354Z,26.73
2018-11-03T00:02:45.474Z,27.40
2018-11-03T00:05:15.027Z,27.57
2018-11-03T00:07:44.729Z,28.70
2018-11-03T00:10:13.856Z,30.73
2018-11-03T00:12:43.036Z,27.70
2018-11-03T00:15:12.214Z,32.70
2018-11-03T00:17:41.371Z,27.73
2018-11-03T00:20:10.473Z,27.90
2018-11-03T00:22:39.627Z,29.40
2018-11-03T00:25:09.384Z,29.13
2018-11-03T00:27:38.955Z,29.40
2018-11-03T00:30:11.159Z,28.20
2018-11-03T00:32:40.307Z,31.53
2018-11-03T00:35:09.577Z,34.23
2018-11-03T00:37:38.794Z,30.90
2018-11-03T00:40:11.270Z,34.50
2018-11-03T00:42:40.441Z,34.03
2018-11-03T00:45:11.207Z,29.80
2018-11-03T00:47:41.279Z,37.03
2018-11-03T00:50:12.147Z,31.40
2018-11-03T00:52:41.853Z,35.00
2018-11-03T00:55:11.781Z,31.57
2018-11-03T00:57:41.459Z,36.57
2018-11-03T01:00:14.228Z,35.37
2018-11-03T01:02:45.683Z,31.37
2018-11-03T01:05:15.015Z,39.50
2018-11-03T01:07:44.622Z,35.93
2018-11-03T01:10:13.846Z,37.47
2018-11-03T01:12:42.995Z,31.17
2018-11-03T01:15:13.854Z,34.00
2018-11-03T01:17:43.157Z,35.47
2018-11-03T01:20:14.985Z,34.57
2018-11-03T01:22:44.319Z,37.40
2018-11-03T01:25:13.533Z,36.20
2018-11-03T01:27:42.707Z,35.40
2018-11-03T01:30:14.458Z,38.53
2018-11-03T01:32:43.721Z,39.00
2018-11-03T01:35:12.751Z,39.50
2018-11-03T01:37:41.898Z,35.00
2018-11-03T01:40:18.522Z,38.80
2018-11-03T01:42:47.690Z,42.33
2018-11-03T01:45:16.840Z,33.30
2018-11-03T01:47:45.977Z,35.17
2018-11-03T01:50:15.187Z,44.00
2018-11-03T01:52:44.307Z,39.37
2018-11-03T01:55:13.470Z,39.03
2018-11-03T01:57:42.681Z,38.80
2018-11-03T02:00:12.100Z,34.10
2018-11-03T02:02:41.320Z,39.00
2018-11-03T02:05:11.215Z,43.53
2018-11-03T02:07:40.627Z,39.23
2018-11-03T02:10:11.244Z,39.30
2018-11-03T02:12:40.654Z,40.90
2018-11-03T02:15:10.272Z,43.53
2018-11-03T02:17:39.486Z,44.53
2018-11-03T02:20:10.076Z,43.03
2018-11-03T02:22:40.007Z,40.27
2018-11-03T02:25:09.799Z,40.17
2018-11-03T02:27:38.991Z,43.03
2018-11-03T02:30:09.318Z,35.63
2018-11-03T02:32:38.472Z,47.03
2018-11-03T02:35:08.558Z,40.13
2018-11-03T02:37:38.253Z,35.63
2018-11-03T02:40:09.235Z,37.13
2018-11-03T02:42:38.389Z,33.27
2018-11-03T02:45:08.912Z,32.10
2018-11-03T02:47:38.053Z,36.00
2018-11-03T02:50:10.100Z,38.33
2018-11-03T02:52:39.272Z,36.93
2018-11-03T02:55:08.429Z,34.37
2018-11-03T02:57:38.001Z,34.10
2018-11-03T03:00:08.602Z,35.67
2018-11-03T03:02:37.779Z,32.90
2018-11-03T03:05:08.461Z,39.43
2018-11-03T03:07:37.635Z,37.87
2018-11-03T03:10:09.106Z,34.77
2018-11-03T03:12:38.587Z,37.03
2018-11-03T03:15:09.923Z,32.70
2018-11-03T03:17:39.210Z,32.60
2018-11-03T03:20:10.275Z,37.30
2018-11-03T03:22:39.409Z,32.60
2018-11-03T03:25:09.521Z,39.13
2018-11-03T03:27:38.673Z,33.30
2018-11-03T03:30:08.299Z,37.53
2018-11-03T03:32:37.453Z,34.07
2018-11-03T03:35:07.257Z,34.03
2018-11-03T03:37:36.404Z,36.17
2018-11-03T03:40:07.168Z,34.40
2018-11-03T03:42:36.336Z,34.83
2018-11-03T03:45:06.729Z,37.33
2018-11-03T03:47:35.938Z,33.73
2018-11-03T03:50:05.576Z,37.40
2018-11-03T03:52:34.713Z,38.93
2018-11-03T03:55:03.870Z,38.90
2018-11-03T03:57:32.999Z,35.37
2018-11-03T04:00:02.155Z,36.67
2018-11-03T04:02:31.351Z,39.97
2018-11-03T04:05:00.498Z,37.77
2018-11-03T04:07:29.629Z,36.53
2018-11-03T04:09:58.771Z,40.73
2018-11-03T04:12:27.927Z,37.17
2018-11-03T04:14:57.097Z,40.47
2018-11-03T04:17:26.251Z,37.07
2018-11-03T04:19:55.455Z,37.47
2018-11-03T04:22:24.568Z,36.27
2018-11-03T04:24:53.719Z,31.07
2018-11-03T04:27:22.915Z,34.87
2018-11-03T04:29:52.073Z,33.73
2018-11-03T04:32:21.233Z,34.27
2018-11-03T04:34:50.378Z,33.83
2018-11-03T04:37:19.537Z,36.57
2018-11-03T04:39:48.787Z,33.80
2018-11-03T04:42:17.943Z,37.60
2018-11-03T04:44:47.076Z,33.80
2018-11-03T04:47:16.211Z,34.10
2018-11-03T04:49:45.379Z,34.93
2018-11-03T04:52:14.526Z,31.40
2018-11-03T04:54:43.647Z,36.80
2018-11-03T04:57:12.924Z,31.90
2018-11-03T04:59:42.064Z,32.90
2018-11-03T05:02:11.252Z,37.50
2018-11-03T05:04:40.416Z,29.60
2018-11-03T05:07:09.557Z,35.30
2018-11-03T05:09:38.692Z,33.13
2018-11-03T05:12:07.883Z,32.90
2018-11-03T05:14:36.980Z,31.00
2018-11-03T05:17:06.778Z,31.53
2018-11-03T05:19:35.898Z,36.60
2018-11-03T05:22:05.262Z,33.70
2018-11-03T05:24:34.517Z,37.23
2018-11-03T05:27:03.683Z,42.90
2018-11-03T05:29:32.826Z,37.03
2018-11-03T05:32:01.948Z,41.43
2018-11-03T05:34:31.130Z,33.10
2018-11-03T05:37:00.306Z,38.40
2018-11-03T05:39:29.449Z,34.10
2018-11-03T05:42:06.127Z,41.47
2018-11-03T05:44:35.752Z,37.53
2018-11-03T05:47:04.942Z,40.33
2018-11-03T05:49:34.089Z,38.73
2018-11-03T05:52:03.278Z,39.60
2018-11-03T05:54:32.404Z,44.53
2018-11-03T05:57:01.555Z,39.10
2018-11-03T05:59:30.695Z,42.87
2018-11-03T06:01:59.837Z,38.07
2018-11-03T06:04:28.980Z,35.50
2018-11-03T06:06:58.199Z,37.60
2018-11-03T06:09:27.361Z,36.63
2018-11-03T06:11:56.512Z,37.07
2018-11-03T06:14:25.651Z,37.83
2018-11-03T06:16:54.857Z,35.90
2018-11-03T06:19:25.025Z,31.67
2018-11-03T06:21:54.180Z,36.37
2018-11-03T06:24:23.306Z,34.07
2018-11-03T06:26:52.467Z,42.00
2018-11-03T06:29:21.604Z,34.90
2018-11-03T06:31:50.800Z,33.50
2018-11-03T06:34:19.936Z,37.93
2018-11-03T06:36:49.087Z,36.53
2018-11-03T06:39:18.214Z,50.47
2018-11-03T06:41:47.373Z,33.10
2018-11-03T06:44:16.524Z,34.73
2018-11-03T06:46:45.685Z,34.40
2018-11-03T06:49:20.059Z,34.10
2018-11-03T06:51:50.148Z,30.70
2018-11-03T06:54:19.421Z,34.63
2018-11-03T06:56:48.606Z,36.37
2018-11-03T06:59:18.461Z,35.37
2018-11-03T07:01:47.708Z,36.63
2018-11-03T07:04:16.863Z,37.60
2018-11-03T07:06:46.029Z,34.27
2018-11-03T07:09:15.326Z,32.80
2018-11-03T07:11:44.613Z,30.87
2018-11-03T07:14:13.674Z,31.90
2018-11-03T07:16:42.849Z,32.60
2018-11-03T07:19:11.971Z,32.73
2018-11-03T07:21:41.242Z,29.07
2018-11-03T07:24:10.296Z,38.00
2018-11-03T07:26:39.465Z,32.30
2018-11-03T07:29:08.632Z,35.20
2018-11-03T07:31:37.816Z,39.73
2018-11-03T07:34:07.280Z,36.70
2018-11-03T07:36:36.488Z,38.03
2018-11-03T07:39:07.864Z,40.57
2018-11-03T07:41:37.166Z,38.97
2018-11-03T07:44:07.714Z,36.80
2018-11-03T07:46:36.891Z,34.27
2018-11-03T07:49:06.566Z,33.07
2018-11-03T07:51:35.586Z,31.67
2018-11-03T07:54:04.749Z,33.17
2018-11-03T07:56:33.824Z,38.47
2018-11-03T07:59:02.980Z,33.80
2018-11-03T08:01:32.112Z,34.77
2018-11-03T08:04:01.250Z,35.73
2018-11-03T08:06:30.462Z,32.40
2018-11-03T08:08:59.683Z,32.63
2018-11-03T08:11:28.737Z,37.20
2018-11-03T08:13:57.861Z,36.10
2018-11-03T08:16:27.465Z,31.03
2018-11-03T08:18:56.547Z,34.13
2018-11-03T08:21:25.679Z,33.50
2018-11-03T08:23:54.828Z,31.27
2018-11-03T08:26:23.946Z,31.50
2018-11-03T08:28:53.064Z,33.80
2018-11-03T08:31:22.250Z,35.23
2018-11-03T08:33:51.365Z,36.83
2018-11-03T08:36:20.500Z,33.73
2018-11-03T08:38:49.644Z,33.70
2018-11-03T08:41:18.718Z,35.13
2018-11-03T08:43:47.838Z,35.87
2018-11-03T08:46:17.511Z,38.53
2018-11-03T08:48:46.654Z,29.70
2018-11-03T08:51:15.796Z,30.97
2018-11-03T08:53:44.956Z,30.83
2018-11-03T08:56:14.111Z,42.93
2018-11-03T08:58:43.299Z,34.90
2018-11-03T09:01:12.417Z,37.70
2018-11-03T09:03:41.700Z,39.43
2018-11-03T09:06:10.835Z,33.07
2018-11-03T09:08:40.041Z,32.77
2018-11-03T09:11:09.254Z,35.80
2018-11-03T09:13:38.437Z,31.10
2018-11-03T09:16:07.552Z,31.97
2018-11-03T09:18:36.661Z,33.30
2018-11-03T09:21:05.928Z,26.67
2018-11-03T09:23:35.110Z,25.83
2018-11-03T09:26:04.236Z,26.80
2018-11-03T09:28:33.419Z,28.03
2018-11-03T09:31:02.481Z,30.83
2018-11-03T09:33:31.610Z,24.43
2018-11-03T09:36:00.714Z,26.13
2018-11-03T09:38:30.102Z,27.03
2018-11-03T09:40:59.120Z,24.27
2018-11-03T09:43:28.235Z,30.53
2018-11-03T09:45:57.320Z,27.90
2018-11-03T09:48:26.437Z,24.87
2018-11-03T09:50:55.610Z,25.30
2018-11-03T09:53:24.715Z,26.57
2018-11-03T09:55:53.863Z,24.50
2018-11-03T09:58:22.969Z,21.27
2018-11-03T10:00:52.141Z,28.23
2018-11-03T10:03:21.294Z,24.83
2018-11-03T10:05:50.404Z,21.63
2018-11-03T10:08:19.565Z,29.13
2018-11-03T10:10:48.833Z,27.77
2018-11-03T10:13:17.981Z,26.93
2018-11-03T10:15:47.129Z,26.23
2018-11-03T10:18:16.230Z,31.17
2018-11-03T10:20:45.377Z,27.60
2018-11-03T10:23:14.534Z,22.97
2018-11-03T10:25:43.733Z,26.67
2018-11-03T10:28:12.873Z,20.83
2018-11-03T10:30:42.009Z,29.50
2018-11-03T10:33:11.130Z,26.63
2018-11-03T10:35:40.241Z,25.23
2018-11-03T10:38:09.397Z,25.20
2018-11-03T10:40:38.790Z,23.50
2018-11-03T10:43:07.887Z,26.87
2018-11-03T10:45:37.042Z,12.43
2018-11-03T10:48:06.420Z,18.57
2018-11-03T10:50:35.529Z,18.60
2018-11-03T10:53:05.117Z,15.47
2018-11-03T10:55:34.248Z,16.43
2018-11-03T10:58:03.372Z,15.17
2018-11-03T11:01:39.599Z,12.50
2018-11-03T11:04:14.022Z,13.40
2018-11-03T11:06:48.599Z,16.73
2018-11-03T11:09:23.000Z,13.63
2018-11-03T11:11:57.629Z,13.97
2018-11-03T11:14:26.738Z,18.90
2018-11-03T11:16:55.968Z,14.20
2018-11-03T11:19:25.077Z,16.37
2018-11-03T11:21:54.182Z,13.57
2018-11-03T11:24:23.542Z,11.60
2018-11-03T11:26:52.476Z,14.50
2018-11-03T11:29:21.599Z,12.23
2018-11-03T11:31:50.732Z,14.20
2018-11-03T11:34:19.841Z,21.80
2018-11-03T11:36:48.945Z,13.20
2018-11-03T11:39:18.099Z,10.93
2018-11-03T11:41:47.255Z,15.70
2018-11-03T11:44:16.389Z,22.23
2018-11-03T11:46:45.497Z,17.27
2018-11-03T11:49:14.646Z,25.00
2018-11-03T11:51:43.742Z,16.80
2018-11-03T11:54:12.861Z,16.50
2018-11-03T11:56:41.941Z,17.00
2018-11-03T11:59:11.079Z,16.40
2018-11-03T12:01:40.236Z,17.60
2018-11-03T12:04:09.762Z,15.77
2018-11-03T12:06:38.873Z,22.23
2018-11-03T12:09:08.814Z,22.03
2018-11-03T12:11:37.972Z,17.17
2018-11-03T12:14:07.162Z,14.40
2018-11-03T12:16:36.337Z,14.60
2018-11-03T12:19:05.488Z,23.40
2018-11-03T12:21:34.588Z,15.10
2018-11-03T12:24:03.737Z,16.33
2018-11-03T12:26:32.855Z,20.77
2018-11-03T12:29:02.010Z,17.50
2018-11-03T12:31:31.188Z,19.33
2018-11-03T12:34:00.341Z,21.30
2018-11-03T12:36:29.539Z,19.13
2018-11-03T12:38:58.666Z,20.40
2018-11-03T12:41:28.048Z,23.03
2018-11-03T12:43:57.091Z,16.27
2018-11-03T12:46:26.210Z,14.97
2018-11-03T12:48:55.376Z,23.80
2018-11-03T12:51:24.449Z,24.10
2018-11-03T12:53:53.592Z,12.70
2018-11-03T12:56:22.723Z,13.00
2018-11-03T12:58:51.838Z,15.20
2018-11-03T13:01:21.037Z,9.53
2018-11-03T13:03:50.143Z,10.53
2018-11-03T13:06:19.283Z,10.60
2018-11-03T13:08:48.406Z,6.97
2018-11-03T13:11:17.536Z,15.67
2018-11-03T13:13:46.709Z,11.77
2018-11-03T13:16:15.863Z,9.97
2018-11-03T13:18:45.090Z,9.17
2018-11-03T13:21:14.258Z,10.63
2018-11-03T13:23:43.381Z,10.10
2018-11-03T13:26:12.503Z,10.13
2018-11-03T13:28:41.636Z,15.33
2018-11-03T13:31:10.745Z,10.00
2018-11-03T13:33:39.874Z,8.17
2018-11-03T13:36:09.183Z,8.60
2018-11-03T13:38:38.313Z,17.70
2018-11-03T13:41:07.424Z,20.67
2018-11-03T13:43:36.587Z,17.00
2018-11-03T13:46:06.065Z,13.97
2018-11-03T13:48:35.216Z,16.53
2018-11-03T13:51:04.348Z,16.23
2018-11-03T13:53:33.589Z,17.57
2018-11-03T13:56:02.737Z,17.13
2018-11-03T13:58:31.833Z,14.60
2018-11-03T14:01:00.973Z,24.30
2018-11-03T14:03:30.094Z,18.63
2018-11-03T14:05:59.210Z,20.50
2018-11-03T14:08:28.385Z,19.03
2018-11-03T14:10:57.494Z,18.13
2018-11-03T14:13:26.669Z,19.37
2018-11-03T14:15:55.794Z,20.60
2018-11-03T14:18:24.950Z,14.53
2018-11-03T14:20:54.076Z,14.00
2018-11-03T14:23:23.283Z,13.83
2018-11-03T14:25:52.331Z,14.30
2018-11-03T14:28:21.431Z,17.00
2018-11-03T14:30:50.612Z,17.33
2018-11-03T14:33:19.770Z,19.00
2018-11-03T14:35:48.829Z,21.33
2018-11-03T14:38:17.942Z,18.53
2018-11-03T14:40:47.060Z,17.63
2018-11-03T14:43:16.280Z,20.53
2018-11-03T14:45:45.403Z,16.07
2018-11-03T14:48:14.514Z,27.27
2018-11-03T14:50:43.654Z,25.07
2018-11-03T14:53:12.875Z,22.67
2018-11-03T14:55:41.985Z,20.97
2018-11-03T14:58:11.126Z,19.93
2018-11-03T15:00:40.307Z,19.07
2018-11-03T15:03:09.389Z,17.00
2018-11-03T15:05:38.556Z,17.10
2018-11-03T15:08:07.669Z,23.97
2018-11-03T15:10:36.750Z,15.40
2018-11-03T15:13:06.063Z,16.97
2018-11-03T15:15:35.248Z,15.30
2018-11-03T15:18:04.311Z,16.23
2018-11-03T15:20:33.417Z,16.73
2018-11-03T15:23:02.524Z,14.23
2018-11-03T15:25:31.606Z,22.23
2018-11-03T15:28:00.746Z,17.03
2018-11-03T15:30:29.837Z,15.50
2018-11-03T15:32:59.010Z,18.47
2018-11-03T15:35:28.132Z,20.10
2018-11-03T15:37:57.279Z,19.10
2018-11-03T15:40:26.406Z,13.60
2018-11-03T15:42:55.510Z,15.20
2018-11-03T15:45:24.645Z,18.23
2018-11-03T15:47:53.907Z,17.03
2018-11-03T15:50:22.997Z,20.53
2018-11-03T15:52:52.098Z,21.73
2018-11-03T15:55:21.226Z,20.53
2018-11-03T15:57:50.353Z,23.30
2018-11-03T16:00:20.807Z,18.90
2018-11-03T16:02:50.119Z,20.27
2018-11-03T16:05:19.237Z,20.50
2018-11-03T16:07:48.496Z,18.77
2018-11-03T16:10:17.623Z,24.13
2018-11-03T16:12:46.839Z,21.37
2018-11-03T16:15:15.889Z,19.93
2018-11-03T16:17:45.012Z,19.40
2018-11-03T16:20:14.300Z,22.00
2018-11-03T16:22:44.233Z,25.60
2018-11-03T16:25:13.283Z,23.57
2018-11-03T16:27:42.433Z,15.43
2018-11-03T16:30:14.476Z,22.30
2018-11-03T16:32:43.867Z,25.27
2018-11-03T16:35:12.836Z,24.83
2018-11-03T16:37:42.478Z,28.43
2018-11-03T16:40:13.089Z,30.60
2018-11-03T16:42:42.936Z,35.90
2018-11-03T16:45:13.429Z,37.80
2018-11-03T16:47:42.944Z,33.63
2018-11-03T16:50:13.165Z,31.97
2018-11-03T16:52:42.537Z,32.37
2018-11-03T16:55:12.763Z,33.70
2018-11-03T16:57:41.880Z,33.60
2018-11-03T17:00:13.473Z,38.80
2018-11-03T17:02:42.842Z,33.30
2018-11-03T17:05:13.184Z,30.17
2018-11-03T17:07:42.299Z,30.50
2018-11-03T17:10:14.626Z,29.30
2018-11-03T17:12:45.081Z,25.40
2018-11-03T17:15:14.489Z,27.87
2018-11-03T17:17:43.611Z,32.40
2018-11-03T17:20:12.956Z,23.80
2018-11-03T17:22:42.120Z,22.83
2018-11-03T17:25:12.256Z,29.90
2018-11-03T17:27:41.291Z,28.37
2018-11-03T17:30:14.395Z,26.30
2018-11-03T17:32:43.975Z,29.20
2018-11-03T17:35:13.276Z,29.30
2018-11-03T17:37:42.904Z,29.90
2018-11-03T17:40:12.384Z,35.53
2018-11-03T17:42:41.519Z,33.03
2018-11-03T17:45:11.481Z,31.87
2018-11-03T17:47:40.722Z,34.47
2018-11-03T17:50:11.906Z,41.83
2018-11-03T17:52:41.169Z,40.23
2018-11-03T17:55:10.842Z,31.20
2018-11-03T17:57:40.907Z,34.20
2018-11-03T18:00:14.282Z,38.40
2018-11-03T18:02:44.603Z,33.80
2018-11-03T18:05:14.421Z,35.33
2018-11-03T18:07:43.610Z,31.93
2018-11-03T18:10:13.428Z,32.43
2018-11-03T18:12:43.115Z,41.90
2018-11-03T18:15:12.444Z,33.63
2018-11-03T18:17:42.139Z,36.17
2018-11-03T18:20:11.760Z,34.10
2018-11-03T18:22:41.045Z,44.80
2018-11-03T18:25:10.168Z,32.57
2018-11-03T18:27:39.261Z,36.70
2018-11-03T18:30:10.678Z,31.03
2018-11-03T18:32:40.292Z,43.13
2018-11-03T18:35:09.684Z,42.10
2018-11-03T18:37:38.856Z,35.53
2018-11-03T18:40:09.242Z,45.03
2018-11-03T18:42:38.535Z,33.90
2018-11-03T18:45:08.340Z,34.27
2018-11-03T18:47:37.490Z,31.37
2018-11-03T18:50:10.156Z,30.50
2018-11-03T18:52:39.597Z,38.63
2018-11-03T18:55:09.297Z,38.70
2018-11-03T18:57:38.647Z,34.00
2018-11-03T19:00:08.854Z,31.13
2018-11-03T19:02:38.165Z,33.63
2018-11-03T19:05:07.540Z,33.00
2018-11-03T19:07:36.625Z,35.40
2018-11-03T19:10:07.387Z,34.40
2018-11-03T19:12:36.479Z,29.57
2018-11-03T19:15:06.615Z,35.53
2018-11-03T19:17:35.761Z,30.70
2018-11-03T19:20:05.615Z,39.27
2018-11-03T19:22:34.775Z,43.40
2018-11-03T19:25:03.856Z,35.20
2018-11-03T19:27:32.979Z,38.67
2018-11-03T19:30:02.162Z,34.83
2018-11-03T19:32:31.362Z,40.47
2018-11-03T19:35:00.472Z,35.27
2018-11-03T19:37:29.603Z,40.67
2018-11-03T19:39:58.869Z,36.57
2018-11-03T19:42:28.065Z,46.67
2018-11-03T19:44:57.674Z,44.83
2018-11-03T19:47:26.913Z,36.07
2018-11-03T19:49:56.097Z,36.00
2018-11-03T19:52:25.336Z,42.43
2018-11-03T19:54:55.290Z,48.83
2018-11-03T19:57:24.689Z,41.73
2018-11-03T19:59:53.956Z,37.13
2018-11-03T20:02:23.198Z,43.63
2018-11-03T20:04:52.388Z,43.43
2018-11-03T20:07:21.590Z,35.20
2018-11-03T20:09:50.735Z,40.73
2018-11-03T20:12:19.898Z,39.03
2018-11-03T20:14:49.029Z,40.03
2018-11-03T20:17:18.205Z,46.13
2018-11-03T20:19:47.546Z,37.40
2018-11-03T20:22:16.801Z,40.83
2018-11-03T20:24:45.950Z,35.90
2018-11-03T20:27:15.107Z,49.73
2018-11-03T20:29:44.224Z,39.50
2018-11-03T20:32:13.397Z,42.33
2018-11-03T20:34:42.548Z,39.07
2018-11-03T20:37:11.678Z,36.30
2018-11-03T20:39:40.844Z,47.07
2018-11-03T20:42:09.953Z,41.20
2018-11-03T20:44:39.130Z,45.77
2018-11-03T20:47:08.268Z,45.80
2018-11-03T20:49:37.409Z,54.43
2018-11-03T20:52:07.223Z,40.07
2018-11-03T20:54:36.410Z,39.80
2018-11-03T20:57:05.952Z,36.47
2018-11-03T20:59:35.118Z,51.20
2018-11-03T21:02:04.436Z,50.20
2018-11-03T21:04:33.506Z,49.67
2018-11-03T21:07:02.714Z,55.60
2018-11-03T21:09:31.852Z,49.87
2018-11-03T21:12:00.962Z,59.30
2018-11-03T21:14:30.122Z,54.60
2018-11-03T21:16:59.294Z,48.00
2018-11-03T21:19:28.462Z,48.23
2018-11-03T21:21:57.639Z,51.43
2018-11-03T21:24:26.768Z,48.80
2018-11-03T21:26:55.978Z,48.53
2018-11-03T21:29:25.216Z,46.00
2018-11-03T21:31:54.519Z,53.60
2018-11-03T21:34:23.583Z,54.90
2018-11-03T21:36:52.698Z,46.50
2018-11-03T21:39:21.826Z,47.80
2018-11-03T21:41:50.957Z,44.10
2018-11-03T21:44:20.100Z,40.80
2018-11-03T21:46:49.303Z,44.93
2018-11-03T21:49:18.401Z,42.70
2018-11-03T21:51:47.745Z,44.77
2018-11-03T21:54:16.851Z,41.13
2018-11-03T21:56:45.969Z,46.20
2018-11-03T21:59:15.095Z,51.67
2018-11-03T22:01:44.272Z,47.03
2018-11-03T22:04:13.443Z,62.73
2018-11-03T22:06:42.550Z,66.27
2018-11-03T22:09:13.023Z,93.37
2018-11-03T22:11:42.277Z,85.93
2018-11-03T22:14:11.511Z,80.23
2018-11-03T22:16:40.689Z,67.97
2018-11-03T22:19:09.815Z,68.13
2018-11-03T22:21:38.938Z,66.83
2018-11-03T22:24:08.515Z,59.60
2018-11-03T22:26:37.704Z,50.53
2018-11-03T22:29:06.908Z,43.80
2018-11-03T22:31:36.049Z,40.53
2018-11-03T22:34:05.466Z,37.70
2018-11-03T22:36:34.612Z,31.33
2018-11-03T22:39:04.549Z,35.90
2018-11-03T22:41:33.675Z,29.33
2018-11-03T22:44:02.851Z,30.40
2018-11-03T22:46:32.008Z,33.37
2018-11-03T22:49:01.324Z,46.50
2018-11-03T22:51:32.061Z,30.23
2018-11-03T22:54:01.220Z,36.87
2018-11-03T22:56:30.482Z,34.77
2018-11-03T22:58:59.772Z,30.17
2018-11-03T23:01:28.994Z,36.27
2018-11-03T23:03:58.228Z,31.67
2018-11-03T23:06:27.808Z,30.80
2018-11-03T23:08:57.789Z,36.47
2018-11-03T23:11:27.045Z,31.93
2018-11-03T23:13:56.439Z,35.37
2018-11-03T23:16:25.970Z,32.93
2018-11-03T23:18:55.355Z,33.57
2018-11-03T23:21:24.481Z,37.80
2018-11-03T23:23:53.674Z,31.50
2018-11-03T23:26:23.578Z,29.53
2018-11-03T23:28:52.876Z,31.10
2018-11-03T23:31:22.031Z,28.53
2018-11-03T23:33:51.347Z,34.80
2018-11-03T23:36:20.525Z,28.80
2018-11-03T23:38:49.687Z,33.10
2018-11-03T23:41:18.885Z,25.50
2018-11-03T23:43:48.039Z,31.27
2018-11-03T23:46:17.231Z,29.90
2018-11-03T23:48:46.389Z,34.23
2018-11-03T23:51:15.682Z,31.07
2018-11-03T23:53:44.922Z,32.33
2018-11-03T23:56:14.104Z,29.40
2018-11-03T23:58:43.670Z,26.90
